Riceville, Pennsylvania
Current Conditions -  °F | °C
As of 1:53 AM on Wednesday 22 Oct 2014 (Local Time) from KGKJ Reporting Station
Overcast Overcast  
Wind Chill: 42°   Ceiling: 900
Heat Index: 46°   Visibility: 10mi
Dew Point: 42°   Wind: 8mph
Humidity: 86%   Direction: 20°NNE
Pressure: 30.06"   Gusts: NA
Location:  41.78°N, 79.8°W
Report Text: KGKJ 220553Z AUTO 02007KT 10SM OVC009 08/06 A3006 RMK AO2 CIG 006V012 SLP185 T00780056 10083 20078 51006 TSNO
Loading
Personal Weather Stations






























Interactive Weather Map
Tropical Storm Tracking
New forecast layout! Learn more

10-Day Weather Forecast

Advertisements
Track Severe Weather on mobile